createdAt,value
2017-04-26T03:01:21.281Z,1009.76
2017-04-26T03:01:46.862Z,1009.74
2017-04-26T03:02:12.411Z,1009.81
2017-04-26T03:02:37.968Z,1009.79
2017-04-26T03:03:03.527Z,1009.84
2017-04-26T03:03:29.153Z,1009.83
2017-04-26T03:03:54.752Z,1009.78
2017-04-26T03:04:20.235Z,1009.84
2017-04-26T03:04:45.801Z,1009.86
2017-04-26T03:05:11.359Z,1009.85
2017-04-26T03:05:37.027Z,1009.87
2017-04-26T03:06:02.570Z,1009.83
2017-04-26T03:06:28.117Z,1009.86
2017-04-26T03:06:53.708Z,1009.83
2017-04-26T03:07:19.294Z,1009.88
2017-04-26T03:07:44.857Z,1009.87
2017-04-26T03:08:10.419Z,1009.89
2017-04-26T03:08:36.079Z,1009.89
2017-04-26T03:09:01.663Z,1009.92
2017-04-26T03:09:27.233Z,1009.91
2017-04-26T03:10:41.033Z,1009.92
2017-04-26T03:11:06.600Z,1009.89
2017-04-26T03:11:32.286Z,1009.91
2017-04-26T03:11:57.845Z,1009.94
2017-04-26T03:12:23.421Z,1009.92
2017-04-26T03:12:48.985Z,1009.92
2017-04-26T03:13:14.555Z,1009.92
2017-04-26T03:13:40.109Z,1009.91
2017-04-26T03:14:05.653Z,1009.92
2017-04-26T03:14:31.219Z,1009.9
2017-04-26T03:14:56.834Z,1009.97
2017-04-26T03:15:22.422Z,1009.92
2017-04-26T03:15:48.008Z,1009.93
2017-04-26T03:16:13.569Z,1009.94
2017-04-26T03:16:39.125Z,1009.92
2017-04-26T03:17:04.741Z,1009.93
2017-04-26T03:17:30.314Z,1009.95
2017-04-26T03:17:55.852Z,1009.94
2017-04-26T03:18:21.462Z,1009.92
2017-04-26T03:18:47.014Z,1009.93
2017-04-26T03:19:12.640Z,1009.95
2017-04-26T03:19:38.198Z,1009.92
2017-04-26T03:20:03.749Z,1009.92
2017-04-26T03:20:29.303Z,1009.93
2017-04-26T03:20:54.860Z,1009.89
2017-04-26T03:21:20.424Z,1009.93
2017-04-26T03:21:45.977Z,1009.9
2017-04-26T03:22:11.540Z,1009.89
2017-04-26T03:22:37.113Z,1009.91
2017-04-26T03:23:02.665Z,1009.88
2017-04-26T03:23:28.222Z,1009.92
2017-04-26T03:23:53.802Z,1009.89
2017-04-26T03:24:19.342Z,1009.9
2017-04-26T03:24:44.901Z,1009.87
2017-04-26T03:25:10.553Z,1009.87
2017-04-26T03:25:36.104Z,1009.9
2017-04-26T03:26:01.662Z,1009.88
2017-04-26T03:26:27.241Z,1009.85
2017-04-26T03:26:52.772Z,1009.85
2017-04-26T03:27:18.331Z,1009.86
2017-04-26T03:27:43.874Z,1009.89
2017-04-26T03:28:09.420Z,1009.88
2017-04-26T03:28:35.171Z,1009.87
2017-04-26T03:29:00.710Z,1009.84
2017-04-26T03:29:26.259Z,1009.82
2017-04-26T03:29:51.798Z,1009.89
2017-04-26T03:30:17.361Z,1009.85
2017-04-26T03:30:42.924Z,1009.89
2017-04-26T03:31:08.534Z,1009.87
2017-04-26T03:31:34.100Z,1009.84
2017-04-26T03:31:59.684Z,1009.84
2017-04-26T03:32:25.243Z,1009.86
2017-04-26T03:32:50.810Z,1009.84
2017-04-26T03:33:16.383Z,1009.87
2017-04-26T03:33:41.944Z,1009.85
2017-04-26T03:34:07.499Z,1009.83
2017-04-26T03:34:33.053Z,1009.86
2017-04-26T03:34:58.614Z,1009.83
2017-04-26T03:35:24.181Z,1009.83
2017-04-26T03:35:49.714Z,1009.84
2017-04-26T03:36:15.273Z,1009.88
2017-04-26T03:36:40.832Z,1009.83
2017-04-26T03:37:06.475Z,1009.87
2017-04-26T03:37:32.022Z,1009.87
2017-04-26T03:37:57.555Z,1009.84
2017-04-26T03:38:23.106Z,1009.85
2017-04-26T03:38:48.692Z,1009.83
2017-04-26T03:39:14.248Z,1009.9
2017-04-26T03:39:39.819Z,1009.85
2017-04-26T03:40:05.378Z,1009.86
2017-04-26T03:40:30.934Z,1009.86
2017-04-26T03:40:56.494Z,1009.89
2017-04-26T03:41:22.055Z,1009.86
2017-04-26T03:41:47.607Z,1009.88
2017-04-26T03:42:13.157Z,1009.86
2017-04-26T03:42:38.702Z,1009.89
2017-04-26T03:43:04.273Z,1009.87
2017-04-26T03:43:29.873Z,1009.87
2017-04-26T03:43:55.410Z,1009.88
2017-04-26T03:44:20.950Z,1009.89
2017-04-26T03:44:46.501Z,1009.91
2017-04-26T03:45:12.040Z,1009.9
2017-04-26T03:45:37.690Z,1009.91
2017-04-26T03:46:03.243Z,1009.9
2017-04-26T03:46:28.814Z,1009.89
2017-04-26T03:46:54.350Z,1009.9
2017-04-26T03:47:19.902Z,1009.92
2017-04-26T03:47:45.460Z,1009.94
2017-04-26T03:48:11.123Z,1009.95
2017-04-26T03:49:14.562Z,1009.92
2017-04-26T03:49:40.110Z,1009.96
2017-04-26T03:50:05.654Z,1009.96
2017-04-26T03:50:31.198Z,1009.94
2017-04-26T03:50:56.753Z,1009.96
2017-04-26T03:51:22.303Z,1009.96
2017-04-26T03:51:47.873Z,1009.96
2017-04-26T03:52:13.453Z,1009.92
2017-04-26T03:52:39.004Z,1009.95
2017-04-26T03:53:04.556Z,1009.92
2017-04-26T03:53:30.114Z,1009.93
2017-04-26T03:53:55.664Z,1009.95
2017-04-26T03:54:21.231Z,1009.95
2017-04-26T03:54:46.803Z,1009.95
2017-04-26T03:55:12.448Z,1009.96
2017-04-26T03:55:38.012Z,1009.97
2017-04-26T03:56:03.573Z,1009.93
2017-04-26T03:56:29.132Z,1009.93
2017-04-26T03:56:54.696Z,1009.96
2017-04-26T03:57:20.245Z,1009.94
2017-04-26T03:57:45.819Z,1009.99
2017-04-26T03:58:11.380Z,1009.96
2017-04-26T03:58:36.934Z,1009.92
2017-04-26T03:59:02.571Z,1009.94
2017-04-26T03:59:28.119Z,1009.88
2017-04-26T03:59:53.680Z,1009.96
2017-04-26T04:00:19.252Z,1009.93
2017-04-26T04:00:44.831Z,1009.94
2017-04-26T04:01:10.389Z,1009.97
2017-04-26T04:01:35.943Z,1009.95
2017-04-26T04:02:01.504Z,1009.98
2017-04-26T04:02:27.060Z,1009.98
2017-04-26T04:02:52.612Z,1010.01
2017-04-26T04:03:18.157Z,1009.91
2017-04-26T04:03:43.710Z,1009.94
2017-04-26T04:04:09.276Z,1010
2017-04-26T04:04:34.858Z,1010
2017-04-26T04:05:00.478Z,1010
2017-04-26T04:05:26.044Z,1009.96
2017-04-26T04:05:51.617Z,1009.97
2017-04-26T04:06:17.330Z,1009.96
2017-04-26T04:06:42.875Z,1009.98
2017-04-26T04:07:08.438Z,1010.02
2017-04-26T04:07:34.005Z,1009.98
2017-04-26T04:07:59.561Z,1010.01
2017-04-26T04:08:25.120Z,1009.99
2017-04-26T04:08:50.670Z,1010.03
2017-04-26T04:09:16.213Z,1010.02
2017-04-26T04:09:41.837Z,1010.03
2017-04-26T04:10:07.379Z,1010.05
2017-04-26T04:10:32.914Z,1010.03
2017-04-26T04:10:58.454Z,1010.04
2017-04-26T04:11:23.990Z,1010.08
2017-04-26T04:11:49.535Z,1010.04
2017-04-26T04:12:15.070Z,1010.05
2017-04-26T04:12:40.611Z,1010.06
2017-04-26T04:13:06.164Z,1010.04
2017-04-26T04:13:31.735Z,1010.07
2017-04-26T04:13:57.281Z,1010.09
2017-04-26T04:14:22.840Z,1010.05
2017-04-26T04:14:48.392Z,1010.09
2017-04-26T04:15:13.954Z,1010.09
2017-04-26T04:15:39.653Z,1010.1
2017-04-26T04:16:05.211Z,1010.09
2017-04-26T04:16:30.775Z,1010.09
2017-04-26T04:16:56.347Z,1010.06
2017-04-26T04:17:21.905Z,1010.05
2017-04-26T04:17:47.474Z,1010.05
2017-04-26T04:18:13.160Z,1010.08
2017-04-26T04:18:38.781Z,1010.08
2017-04-26T04:19:04.346Z,1010.09
2017-04-26T04:19:29.895Z,1010.07
2017-04-26T04:19:55.463Z,1010.06
2017-04-26T04:20:21.000Z,1010.09
2017-04-26T04:20:46.548Z,1010.09
2017-04-26T04:21:12.100Z,1010.12
2017-04-26T04:21:37.637Z,1010.11
2017-04-26T04:22:03.212Z,1010.08
2017-04-26T04:22:28.765Z,1010.1
2017-04-26T04:22:54.344Z,1010.13
2017-04-26T04:23:19.975Z,1010.07
2017-04-26T04:23:45.534Z,1010.1
2017-04-26T04:24:11.099Z,1010.09
2017-04-26T04:24:36.737Z,1010.07
2017-04-26T04:25:02.283Z,1010.09
2017-04-26T04:25:27.843Z,1010.06
2017-04-26T04:25:53.535Z,1010.07
2017-04-26T04:26:19.096Z,1010.07
2017-04-26T04:26:44.660Z,1010.06
2017-04-26T04:27:10.244Z,1010.07
2017-04-26T04:27:35.801Z,1010.07
2017-04-26T04:28:01.361Z,1010.02
2017-04-26T04:28:26.938Z,1010.04
2017-04-26T04:28:52.460Z,1010.04
2017-04-26T04:29:18.035Z,1010.04
2017-04-26T04:29:43.701Z,1010.02
2017-04-26T04:30:09.252Z,1009.96
2017-04-26T04:30:34.844Z,1009.96
2017-04-26T04:31:00.398Z,1010.01
2017-04-26T04:31:25.950Z,1010.04
2017-04-26T04:31:51.530Z,1010.04
2017-04-26T04:32:17.099Z,1010.03
2017-04-26T04:32:42.661Z,1010.02
2017-04-26T04:33:08.262Z,1010.04
2017-04-26T04:33:33.884Z,1010.07
2017-04-26T04:33:59.451Z,1010.07
2017-04-26T04:34:25.022Z,1010.04
2017-04-26T04:34:50.580Z,1010.02
2017-04-26T04:35:16.143Z,1010.01
2017-04-26T04:35:41.703Z,1010.04
2017-04-26T04:36:07.268Z,1009.99
2017-04-26T04:36:32.813Z,1010.04
2017-04-26T04:36:58.373Z,1010.07
2017-04-26T04:37:23.943Z,1010.09
2017-04-26T04:37:49.509Z,1010.12
2017-04-26T04:38:15.834Z,1010.11
2017-04-26T04:38:41.381Z,1010.1
2017-04-26T04:39:06.947Z,1010.07
2017-04-26T04:39:32.551Z,1010.1
2017-04-26T04:39:58.070Z,1010.15
2017-04-26T04:40:23.641Z,1010.11
2017-04-26T04:40:49.183Z,1010.14
2017-04-26T04:41:14.736Z,1010.1
2017-04-26T04:41:40.338Z,1010.12
2017-04-26T04:42:05.901Z,1010.11
2017-04-26T04:42:31.452Z,1010.11
2017-04-26T04:42:57.100Z,1010.18
2017-04-26T04:43:22.746Z,1010.14
2017-04-26T04:43:48.330Z,1010.18
2017-04-26T04:44:13.886Z,1010.17
2017-04-26T04:44:39.454Z,1010.14
2017-04-26T04:45:05.016Z,1010.15
2017-04-26T04:45:30.642Z,1010.19
2017-04-26T04:45:56.315Z,1010.16
2017-04-26T04:46:21.869Z,1010.15
2017-04-26T04:46:47.416Z,1010.17
2017-04-26T04:47:13.089Z,1010.15
2017-04-26T04:47:38.650Z,1010.21
2017-04-26T04:48:04.216Z,1010.16
2017-04-26T04:48:29.773Z,1010.13
2017-04-26T04:48:55.346Z,1010.15
2017-04-26T04:49:20.904Z,1010.18
2017-04-26T04:49:46.452Z,1010.13
2017-04-26T04:50:12.015Z,1010.09
2017-04-26T04:50:37.577Z,1010.13
2017-04-26T04:51:03.339Z,1010.1
2017-04-26T04:51:28.909Z,1010.12
2017-04-26T04:51:54.485Z,1010.16
2017-04-26T04:52:20.178Z,1010.13
2017-04-26T04:52:45.816Z,1010.15
2017-04-26T04:53:11.483Z,1010.14
2017-04-26T04:53:37.049Z,1010.13
2017-04-26T04:54:02.632Z,1010.21
2017-04-26T04:54:28.202Z,1010.21
2017-04-26T04:54:53.753Z,1010.16
2017-04-26T04:55:19.368Z,1010.17
2017-04-26T04:55:45.020Z,1010.18
2017-04-26T04:56:10.604Z,1010.2
2017-04-26T04:56:36.168Z,1010.17
2017-04-26T04:57:01.752Z,1010.18
2017-04-26T04:57:27.315Z,1010.2
2017-04-26T04:57:52.873Z,1010.21
2017-04-26T04:58:18.452Z,1010.22
2017-04-26T04:58:44.002Z,1010.21
2017-04-26T04:59:09.582Z,1010.22
2017-04-26T04:59:35.143Z,1010.21
2017-04-26T05:00:00.710Z,1010.22
2017-04-26T05:00:26.311Z,1010.26
2017-04-26T05:00:51.894Z,1010.25
2017-04-26T05:01:17.470Z,1010.24
2017-04-26T05:01:43.037Z,1010.23
2017-04-26T05:02:08.641Z,1010.24
2017-04-26T05:02:34.210Z,1010.28
2017-04-26T05:02:59.799Z,1010.24
2017-04-26T05:03:25.383Z,1010.29
2017-04-26T05:03:51.062Z,1010.29
2017-04-26T05:04:16.620Z,1010.27
2017-04-26T05:04:42.324Z,1010.26
2017-04-26T05:05:07.883Z,1010.28
2017-04-26T05:05:33.440Z,1010.28
2017-04-26T05:05:59.143Z,1010.29
2017-04-26T05:06:24.754Z,1010.27
2017-04-26T05:06:50.314Z,1010.28
2017-04-26T05:07:15.941Z,1010.31
2017-04-26T05:07:41.562Z,1010.27
2017-04-26T05:08:07.112Z,1010.28
2017-04-26T05:08:32.681Z,1010.27
2017-04-26T05:08:58.342Z,1010.29
2017-04-26T05:09:56.802Z,1010.26
2017-04-26T05:10:22.368Z,1010.26
2017-04-26T05:10:47.951Z,1010.26
2017-04-26T05:11:13.536Z,1010.31
2017-04-26T05:11:39.091Z,1010.29
2017-04-26T05:12:04.645Z,1010.32
2017-04-26T05:12:30.212Z,1010.32
2017-04-26T05:12:55.784Z,1010.32
2017-04-26T05:13:21.350Z,1010.32
2017-04-26T05:13:46.934Z,1010.31
2017-04-26T05:14:12.481Z,1010.3
2017-04-26T05:14:38.038Z,1010.3
2017-04-26T05:15:03.594Z,1010.3
2017-04-26T05:15:29.149Z,1010.29
2017-04-26T05:15:54.823Z,1010.3
2017-04-26T05:16:20.383Z,1010.32
2017-04-26T05:16:45.968Z,1010.31
2017-04-26T05:17:11.546Z,1010.3
2017-04-26T05:17:37.122Z,1010.35
2017-04-26T05:18:02.712Z,1010.35
2017-04-26T05:18:28.285Z,1010.31
2017-04-26T05:18:53.843Z,1010.36
2017-04-26T05:19:20.172Z,1010.35
2017-04-26T05:19:45.746Z,1010.35
2017-04-26T05:20:11.411Z,1010.3
2017-04-26T05:20:36.970Z,1010.31
2017-04-26T05:21:02.543Z,1010.33
2017-04-26T05:21:28.094Z,1010.38
2017-04-26T05:21:53.643Z,1010.44
2017-04-26T05:22:19.277Z,1010.4
2017-04-26T05:22:44.928Z,1010.4
2017-04-26T05:23:10.502Z,1010.39
2017-04-26T05:23:36.075Z,1010.38
2017-04-26T05:24:01.631Z,1010.43
2017-04-26T05:24:27.257Z,1010.38
2017-04-26T05:24:52.813Z,1010.4
2017-04-26T05:25:18.488Z,1010.41
2017-04-26T05:25:44.068Z,1010.43
2017-04-26T05:26:09.662Z,1010.38
2017-04-26T05:26:35.242Z,1010.38
2017-04-26T05:27:00.803Z,1010.35
2017-04-26T05:27:26.350Z,1010.36
2017-04-26T05:27:51.910Z,1010.39
2017-04-26T05:28:17.472Z,1010.37
2017-04-26T05:28:43.036Z,1010.38
2017-04-26T05:29:46.645Z,1010.37
2017-04-26T05:30:12.245Z,1010.38
2017-04-26T05:30:37.792Z,1010.37
2017-04-26T05:31:03.333Z,1010.41
2017-04-26T05:31:28.881Z,1010.38
2017-04-26T05:31:54.524Z,1010.39
2017-04-26T05:32:20.104Z,1010.37
2017-04-26T05:32:45.654Z,1010.38
2017-04-26T05:33:11.244Z,1010.39
2017-04-26T05:33:36.796Z,1010.46
2017-04-26T05:34:02.424Z,1010.45
2017-04-26T05:34:27.958Z,1010.44
2017-04-26T05:34:53.593Z,1010.44
2017-04-26T05:35:19.148Z,1010.42
2017-04-26T05:35:44.724Z,1010.42
2017-04-26T05:36:10.293Z,1010.43
2017-04-26T05:36:35.852Z,1010.46
2017-04-26T05:37:01.408Z,1010.47
2017-04-26T05:37:27.033Z,1010.45
2017-04-26T05:37:52.589Z,1010.46
2017-04-26T05:38:18.139Z,1010.48
2017-04-26T05:38:43.703Z,1010.49
2017-04-26T05:39:09.285Z,1010.5
2017-04-26T05:39:34.834Z,1010.49
2017-04-26T05:40:00.438Z,1010.5
2017-04-26T05:40:26.019Z,1010.53
2017-04-26T05:40:51.599Z,1010.51
2017-04-26T05:41:17.161Z,1010.5
2017-04-26T05:41:42.731Z,1010.54
2017-04-26T05:42:08.428Z,1010.55
2017-04-26T05:42:34.006Z,1010.5
2017-04-26T05:42:59.616Z,1010.51
2017-04-26T05:43:25.297Z,1010.52
2017-04-26T05:43:50.847Z,1010.52
2017-04-26T05:44:16.437Z,1010.54
2017-04-26T05:44:42.160Z,1010.5
2017-04-26T05:45:07.690Z,1010.53
2017-04-26T05:45:33.234Z,1010.52
2017-04-26T05:45:58.802Z,1010.54
2017-04-26T05:46:24.368Z,1010.51
2017-04-26T05:46:49.953Z,1010.51
2017-04-26T05:47:15.524Z,1010.51
2017-04-26T05:47:41.082Z,1010.56
2017-04-26T05:48:06.644Z,1010.56
2017-04-26T05:48:32.239Z,1010.55
2017-04-26T05:48:57.811Z,1010.5
2017-04-26T05:49:23.411Z,1010.53
2017-04-26T05:50:32.119Z,1010.52
2017-04-26T05:51:50.780Z,1010.53
2017-04-26T05:52:16.350Z,1010.52
2017-04-26T05:52:41.896Z,1010.52
2017-04-26T05:53:07.457Z,1010.54
2017-04-26T05:53:33.025Z,1010.55
2017-04-26T05:53:58.539Z,1010.56
2017-04-26T05:54:24.106Z,1010.56
2017-04-26T05:54:49.662Z,1010.59
2017-04-26T05:55:15.292Z,1010.58
2017-04-26T05:55:40.890Z,1010.58
2017-04-26T05:56:06.454Z,1010.56
2017-04-26T05:56:32.104Z,1010.55
2017-04-26T05:56:57.740Z,1010.6
2017-04-26T05:57:23.340Z,1010.6
2017-04-26T05:57:48.950Z,1010.63
2017-04-26T05:58:14.537Z,1010.62
2017-04-26T05:58:40.100Z,1010.6
2017-04-26T05:59:05.645Z,1010.61
2017-04-26T05:59:31.200Z,1010.62
2017-04-26T05:59:56.762Z,1010.6
2017-04-26T06:00:55.162Z,1010.6
2017-04-26T06:01:20.775Z,1010.63
2017-04-26T06:01:46.344Z,1010.61
2017-04-26T06:02:11.919Z,1010.63
2017-04-26T06:02:37.566Z,1010.61
2017-04-26T06:03:03.175Z,1010.61
2017-04-26T06:03:28.736Z,1010.62
2017-04-26T06:03:54.291Z,1010.64
2017-04-26T06:04:19.959Z,1010.62
2017-04-26T06:04:45.526Z,1010.64
2017-04-26T06:05:11.105Z,1010.69
2017-04-26T06:05:36.653Z,1010.68
2017-04-26T06:06:02.212Z,1010.69
2017-04-26T06:06:27.774Z,1010.72
2017-04-26T06:06:53.321Z,1010.74
2017-04-26T06:07:18.873Z,1010.74
2017-04-26T06:07:44.577Z,1010.75
2017-04-26T06:08:10.162Z,1010.71
2017-04-26T06:08:35.706Z,1010.71
2017-04-26T06:09:01.398Z,1010.75
2017-04-26T06:09:26.942Z,1010.71
2017-04-26T06:09:52.512Z,1010.75
2017-04-26T06:10:18.060Z,1010.74
2017-04-26T06:10:43.628Z,1010.73
2017-04-26T06:11:09.203Z,1010.8
2017-04-26T06:11:34.768Z,1010.77
2017-04-26T06:12:00.331Z,1010.74
2017-04-26T06:12:25.979Z,1010.75
2017-04-26T06:12:51.534Z,1010.74
2017-04-26T06:13:17.098Z,1010.77
2017-04-26T06:13:42.660Z,1010.77
2017-04-26T06:14:08.213Z,1010.79
2017-04-26T06:14:33.811Z,1010.75
2017-04-26T06:14:59.393Z,1010.74
2017-04-26T06:15:24.963Z,1010.77
2017-04-26T06:15:50.531Z,1010.76
2017-04-26T06:16:16.081Z,1010.79
2017-04-26T06:16:41.734Z,1010.78
2017-04-26T06:17:07.321Z,1010.78
2017-04-26T06:17:32.883Z,1010.83
2017-04-26T06:17:58.518Z,1010.78
2017-04-26T06:18:24.099Z,1010.8
2017-04-26T06:18:49.658Z,1010.81
2017-04-26T06:19:15.199Z,1010.75
2017-04-26T06:19:40.790Z,1010.77
2017-04-26T06:20:06.334Z,1010.79
2017-04-26T06:20:31.898Z,1010.76
2017-04-26T06:20:57.454Z,1010.82
2017-04-26T06:21:23.005Z,1010.8
2017-04-26T06:21:48.693Z,1010.78
2017-04-26T06:22:14.225Z,1010.77
2017-04-26T06:22:39.796Z,1010.75
2017-04-26T06:23:05.485Z,1010.78
2017-04-26T06:23:31.090Z,1010.79
2017-04-26T06:23:56.651Z,1010.81
2017-04-26T06:24:22.216Z,1010.79
2017-04-26T06:24:47.784Z,1010.81
2017-04-26T06:25:13.342Z,1010.77
2017-04-26T06:25:38.926Z,1010.82
2017-04-26T06:26:04.491Z,1010.75
2017-04-26T06:26:30.163Z,1010.79
2017-04-26T06:26:55.786Z,1010.77
2017-04-26T06:27:21.362Z,1010.77
2017-04-26T06:27:46.929Z,1010.83
2017-04-26T06:28:12.478Z,1010.81
2017-04-26T06:28:38.041Z,1010.75
2017-04-26T06:29:03.606Z,1010.76
2017-04-26T06:29:29.174Z,1010.75
2017-04-26T06:29:54.851Z,1010.77
2017-04-26T06:30:20.390Z,1010.75
2017-04-26T06:30:46.050Z,1010.76
2017-04-26T06:31:11.698Z,1010.75
2017-04-26T06:31:37.234Z,1010.75
2017-04-26T06:32:02.768Z,1010.74
2017-04-26T06:32:28.443Z,1010.76
2017-04-26T06:32:53.984Z,1010.78
2017-04-26T06:33:19.539Z,1010.77
2017-04-26T06:33:45.111Z,1010.78
2017-04-26T06:34:10.676Z,1010.77
2017-04-26T06:34:36.247Z,1010.81
2017-04-26T06:35:01.858Z,1010.79
2017-04-26T06:35:27.395Z,1010.75
2017-04-26T06:36:36.010Z,1010.83
2017-04-26T06:37:01.574Z,1010.84
2017-04-26T06:37:27.128Z,1010.85
2017-04-26T06:37:52.687Z,1010.82
2017-04-26T06:38:18.264Z,1010.84
2017-04-26T06:38:43.935Z,1010.88
2017-04-26T06:39:09.504Z,1010.87
2017-04-26T06:39:35.070Z,1010.9
2017-04-26T06:40:00.638Z,1010.86
2017-04-26T06:40:26.201Z,1010.85
2017-04-26T06:40:51.784Z,1010.9
2017-04-26T06:41:17.338Z,1010.85
2017-04-26T06:41:42.995Z,1010.84
2017-04-26T06:42:08.540Z,1010.9
2017-04-26T06:42:34.123Z,1010.89
2017-04-26T06:42:59.784Z,1010.83
2017-04-26T06:43:25.344Z,1010.84
2017-04-26T06:43:50.905Z,1010.87
2017-04-26T06:44:16.549Z,1010.91
2017-04-26T06:44:42.124Z,1010.9
2017-04-26T06:45:07.665Z,1010.86
2017-04-26T06:45:33.284Z,1010.9
2017-04-26T06:45:58.864Z,1010.88
2017-04-26T06:46:24.410Z,1010.9
2017-04-26T06:46:49.970Z,1010.93
2017-04-26T06:47:15.534Z,1010.93
2017-04-26T06:47:41.091Z,1010.93
2017-04-26T06:48:06.711Z,1010.97
2017-04-26T06:48:32.283Z,1010.94
2017-04-26T06:48:57.832Z,1010.96
2017-04-26T06:49:23.392Z,1010.95
2017-04-26T06:49:48.960Z,1010.94
2017-04-26T06:50:14.511Z,1011.03
2017-04-26T06:50:40.057Z,1010.96
2017-04-26T06:51:05.609Z,1010.97
2017-04-26T06:51:31.182Z,1010.96
2017-04-26T06:51:56.860Z,1010.97
2017-04-26T06:52:22.413Z,1010.97
2017-04-26T06:52:47.997Z,1010.98
2017-04-26T06:53:13.603Z,1010.96
2017-04-26T06:53:39.171Z,1010.94
2017-04-26T06:54:04.719Z,1010.98
2017-04-26T06:54:30.301Z,1010.97
2017-04-26T06:54:55.891Z,1010.94
2017-04-26T06:55:21.465Z,1010.94
2017-04-26T06:55:47.052Z,1010.9
2017-04-26T06:56:12.602Z,1010.94
2017-04-26T06:56:38.185Z,1010.93
2017-04-26T06:57:03.754Z,1010.92
2017-04-26T06:57:29.306Z,1010.94
2017-04-26T06:57:55.048Z,1010.91
2017-04-26T06:58:20.610Z,1010.91
2017-04-26T06:58:46.163Z,1010.96
2017-04-26T06:59:11.715Z,1010.95
2017-04-26T06:59:37.261Z,1010.91
2017-04-26T07:00:02.790Z,1010.98
2017-04-26T07:00:28.484Z,1010.96
2017-04-26T07:00:54.019Z,1010.95
2017-04-26T07:01:19.670Z,1010.94
2017-04-26T07:01:45.211Z,1010.96
2017-04-26T07:02:10.756Z,1010.97
2017-04-26T07:02:36.298Z,1010.96
2017-04-26T07:03:01.849Z,1010.94
2017-04-26T07:03:27.394Z,1010.95
2017-04-26T07:03:52.948Z,1010.94
2017-04-26T07:04:18.499Z,1010.95
2017-04-26T07:04:44.040Z,1010.94
2017-04-26T07:05:09.585Z,1010.92
2017-04-26T07:05:35.149Z,1010.96
2017-04-26T07:06:00.755Z,1010.93
2017-04-26T07:07:09.395Z,1010.94
2017-04-26T07:07:35.032Z,1010.95
2017-04-26T07:08:00.588Z,1010.96
2017-04-26T07:08:26.143Z,1010.94
2017-04-26T07:08:51.715Z,1010.97
2017-04-26T07:09:17.273Z,1011
2017-04-26T07:09:42.842Z,1010.96
2017-04-26T07:10:08.394Z,1010.96
2017-04-26T07:10:33.953Z,1010.96
2017-04-26T07:10:59.511Z,1010.97
2017-04-26T07:11:25.064Z,1011
2017-04-26T07:11:50.701Z,1011
2017-04-26T07:12:16.235Z,1010.99
2017-04-26T07:12:41.787Z,1010.99
2017-04-26T07:13:07.382Z,1011.01
2017-04-26T07:13:32.938Z,1011.01
2017-04-26T07:13:58.487Z,1010.98
2017-04-26T07:14:24.053Z,1011.01
2017-04-26T07:14:49.611Z,1011.01
2017-04-26T07:15:15.184Z,1011.04
2017-04-26T07:15:40.807Z,1011.04
2017-04-26T07:16:06.354Z,1011.03
2017-04-26T07:16:31.925Z,1011
2017-04-26T07:16:57.492Z,1011.07
2017-04-26T07:17:23.194Z,1011.11
2017-04-26T07:17:48.753Z,1011.05
2017-04-26T07:18:14.333Z,1011.06
2017-04-26T07:18:39.901Z,1011.07
2017-04-26T07:19:05.441Z,1011.08
2017-04-26T07:19:31.046Z,1011.08
2017-04-26T07:19:56.590Z,1011.08
2017-04-26T07:20:22.184Z,1011.1
2017-04-26T07:20:47.770Z,1011.03
2017-04-26T07:21:13.298Z,1011.03
2017-04-26T07:21:38.840Z,1011.09
2017-04-26T07:22:04.387Z,1011.04
2017-04-26T07:22:29.952Z,1011.01
2017-04-26T07:22:55.508Z,1011.06
2017-04-26T07:23:21.070Z,1011.05
2017-04-26T07:23:46.614Z,1011.11
2017-04-26T07:24:12.178Z,1011.01
2017-04-26T07:24:37.720Z,1011.08
2017-04-26T07:25:03.273Z,1011.04
2017-04-26T07:25:28.859Z,1011.06
2017-04-26T07:25:54.402Z,1011.1
2017-04-26T07:26:19.941Z,1011.1
2017-04-26T07:26:45.475Z,1011.11
2017-04-26T07:27:11.029Z,1011.09
2017-04-26T07:27:36.580Z,1011.1
2017-04-26T07:28:02.143Z,1011.08
2017-04-26T07:28:27.676Z,1011.04
2017-04-26T07:28:53.231Z,1011.09
2017-04-26T07:29:18.805Z,1011.08
2017-04-26T07:29:44.367Z,1011.07
2017-04-26T07:30:10.121Z,1011.09
2017-04-26T07:30:35.710Z,1011.11
2017-04-26T07:31:01.263Z,1011.08
2017-04-26T07:31:26.820Z,1011.11
2017-04-26T07:31:52.372Z,1011.14
2017-04-26T07:32:17.930Z,1011.12
2017-04-26T07:32:43.504Z,1011.11
2017-04-26T07:33:09.044Z,1011.13
2017-04-26T07:33:34.638Z,1011.12
2017-04-26T07:34:00.198Z,1011.14
2017-04-26T07:34:25.747Z,1011.1
2017-04-26T07:34:51.335Z,1011.11
2017-04-26T07:35:16.902Z,1011.1
2017-04-26T07:35:42.455Z,1011.1
2017-04-26T07:36:08.023Z,1011.14
2017-04-26T07:36:33.598Z,1011.11
2017-04-26T07:36:59.184Z,1011.14
2017-04-26T07:37:24.791Z,1011.15
2017-04-26T07:37:50.417Z,1011.17
2017-04-26T07:38:15.965Z,1011.14
2017-04-26T07:38:41.584Z,1011.15
2017-04-26T07:39:07.231Z,1011.14
2017-04-26T07:39:32.797Z,1011.2
2017-04-26T07:39:58.453Z,1011.13
2017-04-26T07:40:24.035Z,1011.2
2017-04-26T07:40:49.599Z,1011.17
2017-04-26T07:41:15.181Z,1011.14
2017-04-26T07:41:40.752Z,1011.19
2017-04-26T07:42:06.315Z,1011.2
2017-04-26T07:42:31.887Z,1011.18
2017-04-26T07:42:57.510Z,1011.16
2017-04-26T07:43:23.066Z,1011.17
2017-04-26T07:43:48.606Z,1011.18
2017-04-26T07:44:14.160Z,1011.22
2017-04-26T07:44:39.724Z,1011.21
2017-04-26T07:45:05.281Z,1011.23
2017-04-26T07:45:30.843Z,1011.18
2017-04-26T07:45:56.431Z,1011.2
2017-04-26T07:46:22.007Z,1011.21
2017-04-26T07:46:47.621Z,1011.25
2017-04-26T07:47:13.170Z,1011.21
2017-04-26T07:47:38.759Z,1011.2
2017-04-26T07:48:04.320Z,1011.22
2017-04-26T07:48:29.879Z,1011.23
2017-04-26T07:48:55.454Z,1011.24
2017-04-26T07:49:21.033Z,1011.22
2017-04-26T07:49:46.596Z,1011.25
2017-04-26T07:50:12.142Z,1011.22
2017-04-26T07:50:37.700Z,1011.23
2017-04-26T07:51:03.258Z,1011.22
2017-04-26T07:51:28.830Z,1011.22
2017-04-26T07:51:54.377Z,1011.22
2017-04-26T07:52:19.931Z,1011.25
2017-04-26T07:52:45.492Z,1011.27
2017-04-26T07:53:11.060Z,1011.24
2017-04-26T07:53:36.643Z,1011.27
2017-04-26T07:54:02.266Z,1011.22
2017-04-26T07:54:27.821Z,1011.24
2017-04-26T07:54:53.371Z,1011.19
2017-04-26T07:55:18.929Z,1011.26
2017-04-26T07:55:44.479Z,1011.24
2017-04-26T07:56:10.062Z,1011.3
2017-04-26T07:56:35.616Z,1011.24
2017-04-26T07:57:01.172Z,1011.3
2017-04-26T07:57:26.747Z,1011.26
2017-04-26T07:57:52.274Z,1011.25
2017-04-26T07:58:17.823Z,1011.27
2017-04-26T07:58:43.438Z,1011.26
2017-04-26T07:59:08.985Z,1011.25
2017-04-26T07:59:34.654Z,1011.27
2017-04-26T08:00:00.221Z,1011.26
2017-04-26T08:00:25.766Z,1011.25
2017-04-26T08:00:51.367Z,1011.24
2017-04-26T08:01:16.920Z,1011.26
2017-04-26T08:01:42.593Z,1011.21
2017-04-26T08:02:08.145Z,1011.22
2017-04-26T08:02:33.690Z,1011.24
2017-04-26T08:02:59.244Z,1011.25
2017-04-26T08:03:24.799Z,1011.27
2017-04-26T08:03:50.349Z,1011.26
2017-04-26T08:04:15.881Z,1011.24
2017-04-26T08:04:41.439Z,1011.26
2017-04-26T08:05:06.984Z,1011.27
2017-04-26T08:05:32.590Z,1011.26
2017-04-26T08:05:58.167Z,1011.28
2017-04-26T08:06:23.695Z,1011.32
2017-04-26T08:06:49.291Z,1011.29
2017-04-26T08:07:14.850Z,1011.27
2017-04-26T08:07:40.408Z,1011.3
2017-04-26T08:08:05.962Z,1011.31
2017-04-26T08:08:31.509Z,1011.3
2017-04-26T08:08:57.070Z,1011.28
2017-04-26T08:09:22.670Z,1011.31
2017-04-26T08:09:48.322Z,1011.29
2017-04-26T08:10:13.897Z,1011.27
2017-04-26T08:10:39.455Z,1011.31
2017-04-26T08:11:05.024Z,1011.3
2017-04-26T08:11:30.578Z,1011.3
2017-04-26T08:11:56.128Z,1011.3
2017-04-26T08:12:21.892Z,1011.32
2017-04-26T08:12:47.466Z,1011.29
2017-04-26T08:13:12.977Z,1011.34
2017-04-26T08:13:38.540Z,1011.35
2017-04-26T08:14:04.113Z,1011.35
2017-04-26T08:14:29.721Z,1011.35
2017-04-26T08:14:55.293Z,1011.35
2017-04-26T08:15:20.854Z,1011.3
2017-04-26T08:15:46.542Z,1011.32
2017-04-26T08:16:12.116Z,1011.35
2017-04-26T08:16:37.681Z,1011.31
2017-04-26T08:17:03.235Z,1011.33
2017-04-26T08:17:28.839Z,1011.33
2017-04-26T08:17:54.413Z,1011.3